KDVT/DVT METAR and TAF weather

Enter ICAO airport designator
Station Type Date Time Source
KDVT METAR 2022/12/05 14:53 UTC NOAA

KDVT 051453Z 00000KT 1/2SM FG VV002 14/14 A3001 RMK AO2 SLP150 T01390139 53005


Station Type Date Time Source
KDVT Decoded METAR 2022/12/05 14:53 UTC NOAA

PHOENIX-DEER VALLEY MUN, AZ, United States (KDVT) 33-41N 112-04W 443M
Dec 05, 2022 - 09:53 AM EST / 2022.12.05 1453 UTC
Wind: Calm:0
Visibility: 1/2 mile(s):0
Sky conditions: obscured
Weather: fog
Temperature: 57.0 F (13.9 C)
Dew Point: 57.0 F (13.9 C)
Relative Humidity: 100%
Pressure (altimeter): 30.01 in. Hg (1016 hPa)
Pressure tendency: 0.01 inches (0.5 hPa) higher than three hours ago
ob: KDVT 051453Z 00000KT 1/2SM FG VV002 14/14 A3001 RMK AO2 SLP150 T01390139 53005
cycle: 15

Station Type Date Time Source
KDVT TAF 2022/12/05 14:18 UTC NOAA

TAF
AMD KDVT 051415Z 0514/0612 VRB04KT 5SM BR SCT010 BKN035 BKN250
TEMPO 0514/0516 1/2SM FG BKN005 BKN020
FM051700 25004KT P6SM SCT030
TEMPO 0519/0523 BKN040
FM060200 VRB03KT P6SM BKN250

Example: see airport list